Aviation Digital Data Service (ADDS)

Output produced by METARs form (1919 UTC 18 June 2019)
found at http://www.aviationweather.gov/metar/data/
 
EHKD 181855Z AUTO 03006KT 350V050 9999 OVC120 17/13 Q1012 BLU 03009KT CAVOK
TAF EHKD 181642Z 1817/1905 03009KT CAVOK 
     BECMG 1818/1821 07014KT 
     PROB30 1900/1905 SCT070CB
       
EHDL 181855Z AUTO 01008KT 330V050 9999 SCT140 24/15 Q1011 BLU
EHGG 181855Z AUTO 03007KT 9999 NCD 19/13 Q1013 NOSIG
TAF EHGG 181709Z 1818/1924 03007KT CAVOK 
     PROB40 
     TEMPO 1911/1924 23020G30KT 4000 SHRA TSRA SCT070CB 
     PROB30 
     TEMPO 1913/1918 24035G45KT 2000 TSRAGR BKN060CB
       
EHEH 181855Z AUTO 01006KT 270V040 9999 OVC170 26/14 Q1011 BLU VRB04KT CAVOK
TAF EHEH 181700Z 1818/1924 VRB03KT CAVOK 
     BECMG 1818/1821 12004KT 
     BECMG 1903/1906 21007KT 
     PROB40 
     TEMPO 1911/1922 VRB10G25KT 3000 TSRAGR FEW025 SCT060CB BKN100
       
EHGR 181855Z AUTO 03005KT 330V100 9999 OVC150 24/15 Q1011 BLU
TAF EHGR 181220Z 1813/1901 VRB04KT CAVOK 
     BECMG 1818/1820 04003KT
       
EHLW 181855Z AUTO 04009KT 010V070 9999 OVC130 18/13 Q1013 BLU
TAF EHLW 181651Z 1817/1905 03009KT CAVOK 
     BECMG 1822/1901 09008KT
       
EHBK 181855Z AUTO VRB02KT 9999 NSC 25/14 Q1011 NOSIG
TAF EHBK 181709Z 1818/1924 12004KT CAVOK 
     PROB40 
     TEMPO 1911/1921 23020G30KT 4000 SHRA TSRA SCT070CB 
     PROB30 
     TEMPO 1914/1918 24035G45KT 2000 TSRAGR BKN060CB
       
EHRD 181855Z AUTO 36004KT 310V040 9999 NSC 20/14 Q1011 NOSIG
TAF COR EHRD 181719Z 1818/1924 35006KT CAVOK 
     BECMG 1818/1821 06007KT 
     PROB30 
     TEMPO 1905/1909 24020G30KT 4000 SHRA TSRA SCT060CB 
     BECMG 1909/1912 25010KT 
     PROB40 
     TEMPO 1916/1919 27020G33KT 2000 TSRAGR SCT050CB 
     PROB30 
     TEMPO 1922/1924 5000 SHRA TSRA SCT050CB
       
EHAM 181855Z 04007KT 010V070 CAVOK 21/15 Q1012 NOSIG
TAF COR EHAM 181717Z 1818/1924 06008KT CAVOK 
     PROB30 
     TEMPO 1906/1910 24020G30KT 4000 SHRA TSRA SCT060CB 
     BECMG 1909/1912 25010KT 
     PROB40 
     TEMPO 1916/1919 27020G33KT 2000 TSRAGR SCT050CB 
     PROB30 
     TEMPO 1922/1924 5000 SHRA TSRA SCT050CB
       
EHVK 181855Z AUTO 35003KT 9999 BKN220 24/15 Q1011 BLU
TAF EHVK 181637Z 1817/1905 VRB03KT CAVOK 
     BECMG 1818/1821 12004KT 
     PROB30 
     TEMPO 1900/1905 VRB10G25KT 3500 SHRA TSRA SCT080CB BKN100
       
EHWO 181855Z AUTO 01006KT 320V040 9999 OVC130 23/17 Q1010 BLU
TAF EHWO 180817Z 1809/1821 VRB04KT CAVOK 
     BECMG 1815/1818 10005KT